Time;durP1;ratioP1;P1;durP2;ratioP2;P2;SDS_P1;SDS_P2;PMS_P1;PMS_P2;Temp;Humidity;BMP_temperature;BMP_pressure;BME280_temperature;BME280_humidity;BME280_pressure;Samples;Min_cycle;Max_cycle;Signal;HPM_P1;HPM_P2
2022/04/24 00:01:39;;;;;;;25.10;16.73;;;13.10;90.90;;;;;;10277691;28;20242;-87
2022/04/24 00:06:46;;;;;;;20.83;12.93;;;12.50;90.30;;;;;;10269506;28;20374;-87
2022/04/24 00:11:49;;;;;;;18.83;13.50;;;12.70;92.10;;;;;;10292811;28;20238;-87
2022/04/24 00:16:52;;;;;;;20.00;13.57;;;13.00;91.20;;;;;;10254386;28;20297;-86
2022/04/24 00:21:55;;;;;;;24.30;13.73;;;13.00;90.80;;;;;;10253066;29;20234;-87
2022/04/24 00:26:59;;;;;;;19.87;12.33;;;13.10;90.90;;;;;;10237009;28;20231;-87
2022/04/24 00:32:01;;;;;;;19.07;12.43;;;13.40;90.40;;;;;;10258310;28;20249;-87
2022/04/24 00:37:04;;;;;;;19.77;13.17;;;13.50;90.00;;;;;;10289733;28;20260;-87
2022/04/24 00:42:09;;;;;;;21.17;13.00;;;13.80;88.90;;;;;;10224363;29;20629;-87
2022/04/24 00:47:17;;;;;;;18.93;13.13;;;14.00;87.80;;;;;;10233163;28;20237;-87
2022/04/24 00:52:19;;;;;;;19.33;12.07;;;14.00;87.40;;;;;;10251132;29;20278;-87
2022/04/24 00:57:22;;;;;;;17.97;11.30;;;13.70;86.50;;;;;;10250644;29;20242;-87
2022/04/24 01:02:25;;;;;;;20.33;14.10;;;13.70;87.70;;;;;;10251173;29;20284;-87
2022/04/24 01:07:28;;;;;;;18.77;12.93;;;13.50;86.90;;;;;;10250581;29;20242;-89
2022/04/24 01:12:30;;;;;;;24.67;17.03;;;12.50;90.20;;;;;;10225603;29;21040;-89
2022/04/24 01:17:33;;;;;;;17.33;11.43;;;12.50;89.40;;;;;;10211044;29;20239;-89
2022/04/24 01:22:36;;;;;;;26.03;14.43;;;12.70;91.00;;;;;;10212483;29;20219;-89
2022/04/24 01:27:38;;;;;;;18.40;11.13;;;12.70;90.20;;;;;;10247660;29;20289;-89
2022/04/24 01:32:41;;;;;;;18.90;12.23;;;13.30;90.10;;;;;;10250535;29;20258;-89
2022/04/24 01:37:44;;;;;;;16.43;12.13;;;13.70;88.00;;;;;;10256529;28;20257;-89
2022/04/24 01:42:46;;;;;;;26.47;17.50;;;13.60;87.90;;;;;;10269509;28;20249;-89
2022/04/24 01:47:49;;;;;;;29.83;19.93;;;10.00;83.20;;;;;;10272779;28;20249;-89
2022/04/24 01:52:51;;;;;;;19.03;13.03;;;9.10;94.10;;;;;;10289772;28;20697;-89
2022/04/24 01:57:54;;;;;;;16.60;11.93;;;11.00;97.60;;;;;;10259275;28;20577;-89
2022/04/24 02:02:56;;;;;;;17.20;11.83;;;12.50;93.40;;;;;;10247747;28;20253;-89
2022/04/24 02:07:59;;;;;;;19.00;11.93;;;13.10;91.30;;;;;;10274252;28;20296;-89
2022/04/24 02:13:01;;;;;;;16.37;11.43;;;13.10;90.50;;;;;;10288686;28;20261;-89
2022/04/24 02:18:04;;;;;;;18.57;11.73;;;12.80;91.10;;;;;;10247044;29;20684;-89
2022/04/24 02:23:08;;;;;;;21.33;14.30;;;12.90;90.90;;;;;;10248900;28;20652;-89
2022/04/24 02:28:10;;;;;;;17.30;11.13;;;13.00;90.30;;;;;;10270893;28;20237;-89
2022/04/24 02:33:13;;;;;;;16.40;11.70;;;13.50;89.60;;;;;;10271170;28;20706;-89
2022/04/24 02:38:15;;;;;;;16.90;12.30;;;13.80;87.80;;;;;;10239077;28;20282;-89
2022/04/24 02:43:18;;;;;;;21.47;13.93;;;13.80;86.20;;;;;;10226651;29;20289;-90
2022/04/24 02:48:22;;;;;;;16.03;11.57;;;13.00;87.00;;;;;;10247033;29;20245;-89
2022/04/24 02:53:24;;;;;;;17.73;12.03;;;12.90;90.00;;;;;;10208174;29;20956;-89
2022/04/24 02:58:27;;;;;;;16.93;10.97;;;13.00;88.80;;;;;;10208205;29;20602;-90
2022/04/24 03:03:29;;;;;;;16.47;11.70;;;13.00;89.70;;;;;;10222203;29;20278;-89
2022/04/24 03:08:32;;;;;;;14.73;11.17;;;13.10;89.20;;;;;;10236369;29;20282;-89
2022/04/24 03:13:35;;;;;;;20.43;13.47;;;13.50;88.20;;;;;;10251639;28;20731;-89
2022/04/24 03:18:38;;;;;;;15.10;10.63;;;13.30;87.20;;;;;;10255395;29;20312;-89
2022/04/24 03:23:40;;;;;;;16.43;12.20;;;13.00;88.60;;;;;;10248398;29;20702;-90
2022/04/24 03:28:49;;;;;;;20.30;13.80;;;13.00;89.30;;;;;;10254294;29;20288;-90
2022/04/24 03:33:52;;;;;;;15.73;10.57;;;13.00;88.10;;;;;;10213684;29;20254;-89
2022/04/24 03:38:54;;;;;;;16.37;12.17;;;13.10;88.90;;;;;;10231906;29;20289;-89
2022/04/24 03:43:57;;;;;;;15.93;11.03;;;13.20;87.40;;;;;;10270548;28;20241;-89
2022/04/24 03:48:59;;;;;;;17.30;10.73;;;13.10;87.90;;;;;;10293657;28;20292;-90
2022/04/24 03:54:02;;;;;;;15.07;10.63;;;13.30;87.90;;;;;;10293378;28;20257;-90
2022/04/24 03:59:04;;;;;;;14.97;10.60;;;13.20;87.50;;;;;;10268747;28;20255;-90
2022/04/24 04:04:07;;;;;;;18.17;11.67;;;13.30;87.10;;;;;;10272167;28;20264;-90
2022/04/24 04:09:10;;;;;;;18.47;11.37;;;13.40;86.80;;;;;;10286577;28;20240;-90
2022/04/24 04:14:13;;;;;;;19.67;12.03;;;13.50;86.00;;;;;;10275302;28;20253;-90
2022/04/24 04:19:16;;;;;;;15.60;10.87;;;13.60;85.50;;;;;;10275363;28;20350;-90
2022/04/24 04:24:19;;;;;;;15.20;11.07;;;13.80;85.10;;;;;;10288994;28;20237;-90
2022/04/24 04:29:21;;;;;;;15.43;10.33;;;13.90;84.30;;;;;;10271429;28;20277;-90
2022/04/24 04:34:23;;;;;;;18.67;13.07;;;13.80;84.00;;;;;;10291292;28;20336;-90
2022/04/24 04:39:26;;;;;;;21.57;15.30;;;14.00;83.50;;;;;;10291217;28;20403;-90
2022/04/24 04:44:28;;;;;;;17.10;12.57;;;14.00;81.40;;;;;;10270695;28;20242;-90
2022/04/24 04:49:31;;;;;;;13.90;9.73;;;13.90;83.20;;;;;;10271934;28;20313;-90
2022/04/24 04:54:34;;;;;;;14.23;10.30;;;14.20;83.00;;;;;;10290693;28;20253;-90
2022/04/24 04:59:36;;;;;;;18.87;11.90;;;14.30;82.00;;;;;;10274999;28;20205;-89
2022/04/24 05:04:43;;;;;;;17.73;11.40;;;14.50;79.70;;;;;;10291252;28;20304;-90
2022/04/24 05:09:45;;;;;;;15.70;11.63;;;14.50;78.40;;;;;;10288167;28;20304;-90
2022/04/24 05:14:48;;;;;;;15.97;10.50;;;14.50;80.40;;;;;;10272433;28;20269;-90
2022/04/24 05:19:50;;;;;;;16.57;10.73;;;14.90;79.50;;;;;;10241656;28;20320;-89
2022/04/24 05:24:54;;;;;;;14.43;11.17;;;14.70;79.00;;;;;;10268203;28;20242;-90
2022/04/24 05:29:59;;;;;;;15.53;12.00;;;14.90;78.20;;;;;;10270076;28;20763;-91
2022/04/24 05:35:02;;;;;;;12.40;9.13;;;14.30;79.90;;;;;;10270387;28;20265;-90
2022/04/24 05:40:05;;;;;;;20.30;13.17;;;14.30;81.60;;;;;;10270696;28;20285;-90
2022/04/24 05:45:10;;;;;;;14.30;10.20;;;14.70;77.20;;;;;;10237834;28;20700;-90
2022/04/24 05:50:13;;;;;;;14.33;11.23;;;14.50;80.00;;;;;;10249647;29;20246;-89
2022/04/24 05:55:15;;;;;;;16.63;10.67;;;14.60;76.30;;;;;;10252801;28;20257;-90
2022/04/24 06:00:19;;;;;;;16.87;12.87;;;14.40;80.10;;;;;;10285499;28;20633;-89
2022/04/24 06:05:26;;;;;;;17.63;14.33;;;14.50;76.90;;;;;;10287705;28;20241;-89
2022/04/24 06:10:28;;;;;;;13.70;10.87;;;13.20;75.00;;;;;;10288710;28;20291;-89
2022/04/24 06:15:30;;;;;;;14.13;10.70;;;13.90;79.40;;;;;;10269900;28;20265;-89
2022/04/24 06:20:33;;;;;;;21.77;15.00;;;13.90;80.60;;;;;;10271184;28;20225;-89
2022/04/24 06:25:36;;;;;;;17.97;13.47;;;12.80;77.90;;;;;;10266434;28;20210;-89
2022/04/24 06:30:42;;;;;;;16.30;11.83;;;12.10;84.40;;;;;;10261460;28;20308;-90
2022/04/24 06:35:45;;;;;;;13.17;10.63;;;13.50;81.70;;;;;;10254007;28;20265;-89
2022/04/24 06:40:54;;;;;;;15.53;11.57;;;13.10;86.90;;;;;;10270020;28;20253;-90
2022/04/24 06:45:57;;;;;;;18.00;13.20;;;13.80;82.10;;;;;;10266120;28;20292;-89
2022/04/24 06:50:59;;;;;;;21.63;14.37;;;13.70;77.20;;;;;;10243089;28;20846;-90
2022/04/24 06:56:02;;;;;;;16.33;12.43;;;13.60;79.00;;;;;;10279611;28;20258;-90
2022/04/24 07:01:04;;;;;;;13.37;9.33;;;14.00;79.90;;;;;;10269159;28;20756;-88
2022/04/24 07:06:08;;;;;;;17.80;12.73;;;13.10;85.20;;;;;;10285865;28;20730;-88
2022/04/24 07:11:11;;;;;;;11.80;9.23;;;13.70;80.40;;;;;;10287236;28;20249;-88
2022/04/24 07:16:13;;;;;;;10.07;8.40;;;13.70;85.00;;;;;;10282673;28;20673;-89
2022/04/24 07:21:16;;;;;;;14.30;10.90;;;14.10;83.50;;;;;;10276733;28;20245;-88
2022/04/24 07:26:18;;;;;;;16.70;12.77;;;13.40;84.00;;;;;;10275088;28;20774;-90
2022/04/24 07:31:24;;;;;;;18.97;11.67;;;13.80;79.10;;;;;;10261144;28;20305;-88
2022/04/24 07:36:26;;;;;;;16.27;11.60;;;14.30;78.50;;;;;;10237310;28;20292;-89
2022/04/24 07:41:29;;;;;;;12.87;9.37;;;14.20;78.00;;;;;;10265134;28;20707;-90
2022/04/24 07:46:34;;;;;;;17.30;12.20;;;14.30;82.60;;;;;;10264378;28;20246;-89
2022/04/24 07:51:36;;;;;;;11.97;9.07;;;14.00;81.80;;;;;;10244323;28;20269;-88
2022/04/24 07:56:39;;;;;;;9.73;7.63;;;15.60;78.10;;;;;;10256146;28;20269;-88
2022/04/24 08:01:41;;;;;;;12.67;10.20;;;15.70;78.20;;;;;;10277504;28;20269;-88
2022/04/24 08:06:44;;;;;;;12.23;8.63;;;15.10;75.10;;;;;;10293825;28;20238;-89
2022/04/24 08:11:46;;;;;;;9.83;8.43;;;15.20;77.90;;;;;;10293358;28;20850;-88
2022/04/24 08:16:49;;;;;;;10.37;7.20;;;15.20;78.20;;;;;;10260440;28;20233;-88
2022/04/24 08:21:52;;;;;;;8.87;7.20;;;15.90;74.30;;;;;;10275867;28;20288;-88
2022/04/24 08:26:54;;;;;;;9.03;7.80;;;16.20;75.00;;;;;;10252082;29;20269;-89
2022/04/24 08:31:56;;;;;;;9.13;6.70;;;16.10;75.10;;;;;;10269982;28;20214;-89
2022/04/24 08:36:59;;;;;;;8.50;7.33;;;16.20;73.00;;;;;;10287129;28;20258;-88
2022/04/24 08:42:02;;;;;;;8.90;7.10;;;16.40;73.80;;;;;;10212558;29;20636;-88
2022/04/24 08:47:06;;;;;;;10.33;7.37;;;16.40;73.90;;;;;;10228310;29;20254;-89
2022/04/24 08:52:10;;;;;;;11.17;7.17;;;16.50;73.60;;;;;;10251304;29;20254;-89
2022/04/24 08:57:13;;;;;;;7.67;6.87;;;16.40;73.20;;;;;;10242175;29;20270;-88
2022/04/24 09:02:15;;;;;;;10.23;7.10;;;16.50;73.60;;;;;;10227870;29;20238;-89
2022/04/24 09:07:18;;;;;;;11.80;7.50;;;16.50;73.40;;;;;;10245634;29;20907;-89
2022/04/24 09:12:25;;;;;;;8.70;7.50;;;17.10;75.60;;;;;;10238355;29;20230;-89
2022/04/24 09:17:35;;;;;;;10.30;6.97;;;17.00;75.50;;;;;;10237523;29;20261;-89
2022/04/24 09:22:38;;;;;;;9.67;7.03;;;16.80;71.90;;;;;;10235264;28;20242;-88
2022/04/24 09:27:41;;;;;;;10.30;7.03;;;16.60;74.60;;;;;;10229728;29;20246;-89
2022/04/24 09:32:55;;;;;;;9.80;6.50;;;16.70;75.80;;;;;;10245094;29;20297;-89
2022/04/24 09:38:08;;;;;;;6.60;5.93;;;16.40;73.20;;;;;;10245762;28;20280;-90
2022/04/24 09:43:12;;;;;;;9.07;6.50;;;16.70;70.80;;;;;;10263621;28;20316;-90
2022/04/24 09:48:19;;;;;;;9.33;6.60;;;17.00;74.10;;;;;;10263042;28;20678;-90
2022/04/24 09:53:22;;;;;;;6.10;5.50;;;17.10;73.00;;;;;;10253516;28;20319;-90
2022/04/24 09:58:25;;;;;;;5.63;5.13;;;16.90;68.40;;;;;;10288070;28;20312;-90
2022/04/24 10:03:28;;;;;;;7.20;6.20;;;17.20;66.70;;;;;;10269757;28;20237;-90
2022/04/24 10:08:33;;;;;;;9.27;6.37;;;17.10;69.90;;;;;;10258201;28;20659;-88
2022/04/24 10:13:45;;;;;;;7.93;5.63;;;17.30;72.10;;;;;;10268307;28;20257;-88
2022/04/24 10:19:24;;;;;;;12.63;6.20;;;17.40;70.50;;;;;;10256976;28;20261;-90
2022/04/24 10:24:38;;;;;;;8.70;5.93;;;17.50;66.50;;;;;;10272166;28;20241;-90
2022/04/24 10:29:52;;;;;;;9.30;6.13;;;17.70;70.70;;;;;;10256495;28;20234;-88
2022/04/24 10:34:54;;;;;;;6.10;5.00;;;17.80;70.60;;;;;;10230136;29;20270;-89
2022/04/24 10:39:58;;;;;;;7.57;5.90;;;17.60;69.10;;;;;;10241139;29;20320;-88
2022/04/24 10:45:05;;;;;;;5.90;5.40;;;17.70;67.90;;;;;;10245747;29;20274;-88
2022/04/24 10:50:09;;;;;;;7.60;5.73;;;17.60;69.60;;;;;;10245971;29;20277;-88
2022/04/24 10:55:14;;;;;;;11.23;6.20;;;17.60;70.50;;;;;;10247435;29;20362;-88
2022/04/24 11:00:22;;;;;;;6.17;5.20;;;17.60;70.70;;;;;;10217300;28;20243;-88
2022/04/24 11:05:26;;;;;;;7.37;6.17;;;17.50;65.50;;;;;;10196672;29;20268;-89
2022/04/24 11:10:29;;;;;;;9.40;5.63;;;17.40;70.20;;;;;;10223181;29;20218;-89
2022/04/24 11:15:31;;;;;;;5.87;5.23;;;17.30;66.80;;;;;;10246100;29;20717;-88
2022/04/24 11:20:34;;;;;;;9.70;6.17;;;17.50;67.20;;;;;;10236447;28;20243;-88
2022/04/24 11:25:40;;;;;;;6.43;5.77;;;17.50;67.10;;;;;;10246407;29;20241;-88
2022/04/24 11:30:42;;;;;;;6.23;5.40;;;17.60;70.10;;;;;;10231944;29;20243;-87
2022/04/24 11:35:45;;;;;;;7.47;5.73;;;17.40;70.40;;;;;;10231011;29;21082;-87
2022/04/24 11:40:48;;;;;;;5.70;5.10;;;17.30;66.30;;;;;;10245171;29;20292;-88
2022/04/24 11:51:15;;;;;;;6.07;5.47;;;17.40;68.80;;;;;;10246628;29;20245;-89
2022/04/24 11:56:39;;;;;;;6.30;5.37;;;17.30;65.90;;;;;;10247957;29;21027;-88
2022/04/24 12:01:56;;;;;;;5.80;5.20;;;17.40;69.90;;;;;;10252792;29;20242;-94
2022/04/24 12:07:01;;;;;;;6.23;5.60;;;17.50;70.20;;;;;;10234468;29;20762;-88
2022/04/24 12:12:15;;;;;;;6.47;5.67;;;17.50;67.60;;;;;;10236201;29;20608;-88
2022/04/24 12:17:18;;;;;;;8.40;5.90;;;17.20;66.90;;;;;;10253001;29;20250;-88
2022/04/24 12:22:28;;;;;;;6.47;5.03;;;17.10;67.30;;;;;;10234986;29;20383;-88
2022/04/24 12:27:31;;;;;;;5.50;5.00;;;17.30;64.70;;;;;;10252906;29;20319;-88
2022/04/24 12:32:35;;;;;;;5.07;4.67;;;17.30;68.20;;;;;;10259458;29;20258;-88
2022/04/24 12:37:37;;;;;;;6.10;5.50;;;17.10;65.60;;;;;;10265681;28;20281;-88
2022/04/24 12:42:53;;;;;;;7.87;5.97;;;17.20;65.90;;;;;;10258839;28;20246;-88
2022/04/24 12:47:56;;;;;;;9.27;5.90;;;16.90;65.80;;;;;;10291371;28;20242;-88
2022/04/24 12:53:01;;;;;;;6.00;5.37;;;16.80;69.20;;;;;;10291779;28;20273;-88
2022/04/24 12:58:04;;;;;;;7.47;5.80;;;17.00;69.20;;;;;;10291387;28;20293;-88
2022/04/24 13:03:07;;;;;;;7.13;5.80;;;17.10;67.80;;;;;;10291404;28;20241;-88
2022/04/24 13:08:10;;;;;;;13.90;7.23;;;17.00;68.00;;;;;;10290659;28;20243;-88
2022/04/24 13:13:13;;;;;;;6.70;5.10;;;16.90;65.40;;;;;;10291210;28;20626;-87
2022/04/24 13:18:21;;;;;;;6.53;5.80;;;17.10;69.20;;;;;;10258423;28;20293;-88
2022/04/24 13:23:25;;;;;;;6.50;5.83;;;16.80;69.30;;;;;;10273203;28;20752;-88
2022/04/24 13:28:29;;;;;;;7.27;6.20;;;17.00;66.50;;;;;;10290182;28;20237;-87
2022/04/24 13:33:32;;;;;;;8.67;5.70;;;16.80;65.90;;;;;;10289942;28;20286;-88
2022/04/24 13:38:34;;;;;;;8.13;5.73;;;17.00;66.80;;;;;;10289987;28;20316;-87
2022/04/24 13:43:37;;;;;;;8.77;6.77;;;16.90;67.60;;;;;;10288365;28;20236;-87
2022/04/24 13:48:39;;;;;;;6.10;5.47;;;16.80;67.70;;;;;;10289471;28;20241;-88
2022/04/24 13:53:45;;;;;;;10.87;6.23;;;16.70;69.70;;;;;;10289719;28;20240;-87
2022/04/24 13:58:51;;;;;;;8.53;6.90;;;16.80;69.00;;;;;;10289227;28;20292;-88
2022/04/24 14:03:53;;;;;;;9.00;6.77;;;16.80;67.80;;;;;;10277844;28;20213;-87
2022/04/24 14:08:57;;;;;;;6.20;5.60;;;16.90;66.50;;;;;;10272618;28;20236;-88
2022/04/24 14:13:59;;;;;;;7.67;6.67;;;16.70;67.70;;;;;;10289183;28;20301;-88
2022/04/24 14:19:02;;;;;;;7.80;5.60;;;16.70;67.80;;;;;;10269816;28;20288;-88
2022/04/24 14:24:05;;;;;;;7.00;6.30;;;16.70;68.20;;;;;;10284062;28;20833;-88
2022/04/24 14:29:07;;;;;;;9.57;6.77;;;16.60;68.00;;;;;;10269354;28;20849;-88
2022/04/24 14:34:10;;;;;;;7.60;6.80;;;16.50;64.50;;;;;;10247443;28;20305;-88
2022/04/24 14:39:13;;;;;;;10.40;7.07;;;16.60;65.60;;;;;;10281548;28;20700;-87
2022/04/24 14:44:17;;;;;;;12.57;7.50;;;16.50;64.70;;;;;;10286602;28;20711;-87
2022/04/24 15:00:01;;;;;;;8.20;7.37;;;16.60;68.80;;;;;;10262686;28;20269;-87
2022/04/24 15:05:05;;;;;;;9.33;6.20;;;16.40;67.80;;;;;;10229503;29;20202;-87
2022/04/24 15:10:07;;;;;;;7.10;6.40;;;16.30;68.30;;;;;;10276525;28;20248;-87
2022/04/24 15:15:11;;;;;;;7.67;6.50;;;16.50;65.30;;;;;;10280421;28;20273;-87
2022/04/24 15:20:13;;;;;;;7.20;5.90;;;16.40;68.30;;;;;;10291533;28;20335;-86
2022/04/24 15:25:16;;;;;;;5.87;5.27;;;16.30;69.40;;;;;;9937723;28;10000243;-87
2022/04/24 15:30:18;;;;;;;8.33;6.00;;;16.30;68.90;;;;;;10264079;28;20265;-87
2022/04/24 15:35:21;;;;;;;7.37;6.00;;;16.40;69.50;;;;;;10284040;28;20249;-87
2022/04/24 15:40:43;;;;;;;6.33;5.73;;;16.30;67.60;;;;;;10286394;28;20309;-86
2022/04/24 15:45:45;;;;;;;9.53;7.73;;;16.30;69.90;;;;;;10270075;28;20981;-86
2022/04/24 15:50:48;;;;;;;7.57;6.87;;;16.20;67.60;;;;;;10285140;28;20697;-87
2022/04/24 15:55:55;;;;;;;9.67;6.30;;;16.30;69.50;;;;;;10259906;28;20269;-87
2022/04/24 16:00:58;;;;;;;7.43;6.30;;;16.30;70.20;;;;;;10263247;28;20266;-88
2022/04/24 16:06:01;;;;;;;7.97;7.17;;;16.30;69.90;;;;;;10295815;28;20680;-89
2022/04/24 16:11:04;;;;;;;7.73;6.87;;;16.30;70.00;;;;;;10290789;28;20256;-89
2022/04/24 16:16:07;;;;;;;6.77;6.17;;;16.20;68.30;;;;;;10303225;28;20697;-88
2022/04/24 16:21:10;;;;;;;7.27;6.00;;;16.10;68.90;;;;;;10304519;28;20829;-88
2022/04/24 16:26:15;;;;;;;7.03;6.27;;;16.30;68.60;;;;;;10279729;28;20264;-89
2022/04/24 16:31:20;;;;;;;10.10;7.20;;;16.00;70.00;;;;;;10342036;28;20217;-88
2022/04/24 16:36:24;;;;;;;9.60;7.90;;;15.80;67.00;;;;;;10325153;28;20226;-90
2022/04/24 16:41:26;;;;;;;10.43;8.03;;;15.40;73.70;;;;;;10307592;28;20238;-88
2022/04/24 16:46:29;;;;;;;25.20;13.03;;;14.80;73.40;;;;;;10304144;28;20338;-88
2022/04/24 17:02:18;;;;;;;18.47;9.60;;;15.40;91.50;;;;;;10276466;28;20205;-89
2022/04/24 17:07:24;;;;;;;18.53;11.43;;;15.50;75.40;;;;;;10297970;28;20191;-90
2022/04/24 17:12:29;;;;;;;21.73;13.50;;;15.50;91.70;;;;;;10287024;28;20188;-91
2022/04/24 17:17:31;;;;;;;30.70;14.60;;;15.30;78.50;;;;;;10305694;28;20261;-96
2022/04/24 17:22:36;;;;;;;38.63;16.70;;;15.50;90.60;;;;;;10301110;28;20214;-95
2022/04/24 17:27:39;;;;;;;29.60;17.70;;;15.80;83.50;;;;;;10271917;28;20196;-86
2022/04/24 17:32:42;;;;;;;15.03;10.70;;;15.60;76.40;;;;;;10305558;28;20204;-86
2022/04/24 17:37:47;;;;;;;18.90;12.30;;;15.10;73.60;;;;;;10301015;28;20222;-86
2022/04/24 17:42:52;;;;;;;14.13;10.40;;;14.80;76.60;;;;;;10308795;28;20206;-87
2022/04/24 17:47:55;;;;;;;20.53;11.87;;;14.80;74.80;;;;;;10307014;28;20218;-86
2022/04/24 17:53:06;;;;;;;24.73;14.30;;;14.20;82.50;;;;;;10286508;28;20205;-87
2022/04/24 17:58:09;;;;;;;17.93;11.67;;;14.60;90.00;;;;;;10282613;28;20222;-87
2022/04/24 18:03:12;;;;;;;13.43;9.07;;;14.70;82.00;;;;;;10298138;28;20610;-87
2022/04/24 18:08:15;;;;;;;19.27;11.23;;;14.80;76.50;;;;;;10314152;28;20257;-87
2022/04/24 18:13:18;;;;;;;15.10;10.97;;;14.50;76.20;;;;;;10285155;28;20242;-87
2022/04/24 18:18:20;;;;;;;15.30;10.70;;;14.50;83.00;;;;;;10301970;28;20256;-87
2022/04/24 18:23:30;;;;;;;11.87;9.33;;;14.20;79.90;;;;;;10303450;28;20229;-88
2022/04/24 18:28:33;;;;;;;19.00;12.17;;;14.10;77.90;;;;;;10292972;28;20214;-89
2022/04/24 18:33:36;;;;;;;11.40;8.63;;;14.20;86.60;;;;;;10281542;28;20270;-92
2022/04/24 18:38:39;;;;;;;18.87;9.77;;;14.20;76.30;;;;;;10278210;28;20294;-89
2022/04/24 18:43:43;;;;;;;15.53;9.27;;;13.80;76.80;;;;;;10259295;28;20202;-90
2022/04/24 18:48:45;;;;;;;12.53;9.53;;;13.90;76.80;;;;;;10296416;28;20574;-89
2022/04/24 18:53:49;;;;;;;18.33;10.87;;;13.50;78.80;;;;;;10282861;28;20264;-89
2022/04/24 18:58:52;;;;;;;15.83;9.30;;;13.80;82.00;;;;;;10277781;28;20237;-89
2022/04/24 19:09:16;;;;;;;13.23;10.30;;;14.00;88.60;;;;;;10287746;28;20241;-89
2022/04/24 19:14:18;;;;;;;14.60;9.60;;;14.10;84.80;;;;;;10270752;28;20296;-90
2022/04/24 19:19:21;;;;;;;17.87;9.77;;;13.90;78.80;;;;;;10270773;28;20300;-89
2022/04/24 19:24:23;;;;;;;12.83;9.43;;;13.80;82.80;;;;;;10270062;28;20652;-89
2022/04/24 19:29:26;;;;;;;15.60;9.27;;;13.90;82.40;;;;;;10287367;28;20280;-90
2022/04/24 19:34:29;;;;;;;18.83;9.70;;;13.30;83.60;;;;;;10264700;28;20758;-89
2022/04/24 19:39:32;;;;;;;10.13;8.03;;;14.20;86.50;;;;;;10259921;28;20339;-90
2022/04/24 19:44:34;;;;;;;12.00;7.57;;;13.70;82.60;;;;;;10226093;28;20265;-90
2022/04/24 19:49:41;;;;;;;10.23;6.77;;;14.00;80.80;;;;;;10228633;29;21281;-88
2022/04/24 19:54:44;;;;;;;12.83;8.47;;;13.40;79.60;;;;;;10216405;28;20245;-91
2022/04/24 19:59:47;;;;;;;14.20;8.67;;;13.60;81.00;;;;;;10259122;28;20262;-92
2022/04/24 20:04:50;;;;;;;13.33;8.63;;;13.50;84.20;;;;;;10237106;29;20320;-90
2022/04/24 20:09:52;;;;;;;16.63;7.93;;;13.40;82.20;;;;;;10254106;29;20282;-90
2022/04/24 20:14:55;;;;;;;11.40;7.87;;;13.20;83.10;;;;;;10252386;29;20703;-92
2022/04/24 20:19:58;;;;;;;15.20;10.10;;;12.40;85.50;;;;;;10247777;28;20264;-90
2022/04/24 20:25:01;;;;;;;13.93;9.17;;;12.50;89.10;;;;;;10252575;28;20210;-90
2022/04/24 20:30:04;;;;;;;12.87;9.57;;;12.60;90.10;;;;;;10252495;29;20238;-91
2022/04/24 20:35:07;;;;;;;14.33;8.77;;;12.50;90.60;;;;;;10244641;28;20251;-90
2022/04/24 20:40:10;;;;;;;15.83;10.17;;;12.10;85.70;;;;;;10259065;28;20716;-89
2022/04/24 20:45:13;;;;;;;16.43;9.93;;;12.90;90.80;;;;;;10228123;28;20230;-91
2022/04/24 20:50:16;;;;;;;9.90;8.27;;;12.90;90.10;;;;;;10235775;29;20258;-91
2022/04/24 20:55:19;;;;;;;11.77;8.93;;;12.40;85.40;;;;;;10256420;28;20687;-92
2022/04/24 21:00:22;;;;;;;14.27;10.07;;;12.90;84.80;;;;;;10250629;29;20269;-91
2022/04/24 21:05:25;;;;;;;15.80;9.10;;;12.60;91.90;;;;;;10233895;28;20751;-92
2022/04/24 21:10:48;;;;;;;14.07;9.23;;;13.10;86.80;;;;;;10266459;28;20249;-91
2022/04/24 21:15:51;;;;;;;10.77;8.67;;;12.90;91.40;;;;;;10256475;28;20245;-92
2022/04/24 21:20:53;;;;;;;16.03;8.57;;;12.50;85.10;;;;;;10273124;28;20311;-92
2022/04/24 21:25:56;;;;;;;12.23;8.10;;;;;;;;;;10221208;29;20967;-92
2022/04/24 21:30:59;;;;;;;14.17;8.83;;;11.40;88.60;;;;;;10249908;28;20643;-93
2022/04/24 21:36:02;;;;;;;9.90;7.73;;;11.10;90.00;;;;;;10233854;29;20242;-93
2022/04/24 21:41:04;;;;;;;12.50;7.70;;;11.30;92.30;;;;;;10265597;28;20275;-92
2022/04/24 21:46:07;;;;;;;10.60;7.67;;;11.80;89.30;;;;;;10270800;28;20253;-92
2022/04/24 21:51:09;;;;;;;8.50;7.30;;;11.30;89.80;;;;;;10248671;29;20285;-92
2022/04/24 21:56:12;;;;;;;11.00;8.03;;;11.40;89.80;;;;;;10250371;28;20236;-92
2022/04/24 22:01:16;;;;;;;12.40;8.33;;;11.90;90.30;;;;;;10253579;28;20326;-92
2022/04/24 22:06:19;;;;;;;13.83;7.53;;;12.00;93.90;;;;;;10289638;28;20750;-93
2022/04/24 22:11:21;;;;;;;12.30;7.90;;;12.50;90.70;;;;;;10270378;28;20775;-92
2022/04/24 22:16:24;;;;;;;13.77;8.47;;;10.60;92.30;;;;;;10289015;28;20661;-92
2022/04/24 22:26:48;;;;;;;13.00;8.30;;;11.30;92.70;;;;;;10287950;28;20624;-93
2022/04/24 22:31:50;;;;;;;11.37;7.50;;;11.70;91.30;;;;;;10287482;28;20213;-92
2022/04/24 22:36:53;;;;;;;8.73;7.30;;;11.60;92.20;;;;;;10270848;28;20253;-91
2022/04/24 22:41:56;;;;;;;9.43;6.43;;;11.10;93.30;;;;;;10261794;28;20316;-92
2022/04/24 22:46:59;;;;;;;10.07;7.80;;;11.50;85.80;;;;;;10279026;28;20237;-93
2022/04/24 22:52:01;;;;;;;9.53;6.60;;;11.40;93.10;;;;;;10274291;28;20252;-92
2022/04/24 22:57:04;;;;;;;8.47;6.43;;;12.50;91.40;;;;;;10254414;28;20757;-92
2022/04/24 23:02:06;;;;;;;7.77;6.60;;;11.80;86.20;;;;;;10286802;28;20257;-93
2022/04/24 23:07:09;;;;;;;10.40;8.33;;;10.40;91.10;;;;;;10253833;28;20594;-91
2022/04/24 23:12:12;;;;;;;9.77;6.80;;;10.40;95.00;;;;;;10286420;28;20319;-90
2022/04/24 23:17:14;;;;;;;8.17;7.17;;;11.60;93.50;;;;;;10269222;28;20665;-92
2022/04/24 23:22:17;;;;;;;13.10;7.77;;;11.00;91.30;;;;;;10279289;28;20309;-92
2022/04/24 23:27:19;;;;;;;9.77;6.60;;;10.80;90.70;;;;;;10287186;28;20245;-91
2022/04/24 23:32:22;;;;;;;13.67;7.47;;;10.00;92.20;;;;;;10278343;28;20251;-92
2022/04/24 23:37:25;;;;;;;9.07;7.27;;;10.70;97.70;;;;;;10294113;28;20641;-92
2022/04/24 23:42:28;;;;;;;14.23;7.43;;;10.80;96.30;;;;;;10293760;28;20277;-91
2022/04/24 23:47:31;;;;;;;8.87;6.47;;;9.90;97.50;;;;;;10243635;28;20275;-92
2022/04/24 23:52:33;;;;;;;8.37;6.13;;;10.90;95.70;;;;;;10261924;28;20216;-91
2022/04/24 23:57:36;;;;;;;12.57;8.30;;;9.70;93.70;;;;;;10255087;28;20679;-92
